createdAt,value
2023-02-18T00:01:11.906Z,84.29
2023-02-18T00:06:19.013Z,84.45
2023-02-18T00:11:22.024Z,84.44
2023-02-18T00:16:25.492Z,84.79
2023-02-18T00:21:27.469Z,85.13
2023-02-18T00:26:29.196Z,85.81
2023-02-18T00:31:34.112Z,86.41
2023-02-18T00:36:36.718Z,86.93
2023-02-18T00:41:38.614Z,87.61
2023-02-18T00:46:40.454Z,87.69
2023-02-18T00:51:42.448Z,87.91
2023-02-18T00:56:44.456Z,88.21
2023-02-18T01:01:46.768Z,88.43
2023-02-18T01:06:48.438Z,87.32
2023-02-18T01:11:50.175Z,86.16
2023-02-18T01:16:51.793Z,85.05
2023-02-18T01:21:53.556Z,83.06
2023-02-18T01:26:55.299Z,83.03
2023-02-18T01:31:57.162Z,83.24
2023-02-18T01:36:58.852Z,83.95
2023-02-18T01:42:00.557Z,84.30
2023-02-18T01:47:02.267Z,85.57
2023-02-18T01:52:09.336Z,86.28
2023-02-18T01:57:14.667Z,86.49
2023-02-18T02:02:20.529Z,86.77
2023-02-18T02:07:24.027Z,85.51
2023-02-18T02:13:08.837Z,84.31
2023-02-18T02:18:17.437Z,82.75
2023-02-18T02:23:23.374Z,80.64
2023-02-18T02:28:49.340Z,79.57
2023-02-18T02:34:05.786Z,79.38
2023-02-18T02:39:20.745Z,79.79
2023-02-18T02:44:32.274Z,79.52
2023-02-18T02:49:40.007Z,78.77
2023-02-18T02:54:41.724Z,78.42
2023-02-18T02:59:48.762Z,78.14
2023-02-18T03:04:53.433Z,76.82
2023-02-18T03:10:26.538Z,75.71
2023-02-18T03:15:34.498Z,74.81
2023-02-18T03:21:11.391Z,74.66
2023-02-18T03:26:14.090Z,74.38
2023-02-18T03:31:19.426Z,74.25
2023-02-18T03:36:22.005Z,74.10
2023-02-18T03:41:23.749Z,75.00
2023-02-18T03:46:25.519Z,75.45
2023-02-18T03:51:27.502Z,75.42
2023-02-18T03:56:29.143Z,76.18
2023-02-18T04:01:30.962Z,76.48
2023-02-18T04:06:32.826Z,76.36
2023-02-18T04:11:40.862Z,76.58
2023-02-18T04:16:42.672Z,76.18
2023-02-18T04:21:44.347Z,76.94
2023-02-18T04:26:45.999Z,77.20
2023-02-18T04:31:47.703Z,77.56
2023-02-18T04:36:49.417Z,78.52
2023-02-18T04:41:51.060Z,79.37
2023-02-18T04:46:52.721Z,80.27
2023-02-18T04:51:54.403Z,81.32
2023-02-18T04:56:56.138Z,80.92
2023-02-18T05:01:57.757Z,78.68
2023-02-18T05:06:59.344Z,78.83
2023-02-18T05:12:01.022Z,78.76
2023-02-18T05:17:03.152Z,78.77
2023-02-18T05:22:04.821Z,79.00
2023-02-18T05:27:06.419Z,79.04
2023-02-18T05:32:08.140Z,79.32
2023-02-18T05:37:09.869Z,80.13
2023-02-18T05:42:11.729Z,80.43
2023-02-18T05:47:13.361Z,80.93
2023-02-18T05:52:14.998Z,81.72
2023-02-18T05:57:16.766Z,82.59
2023-02-18T06:02:18.489Z,83.34
2023-02-18T06:07:20.719Z,83.59
2023-02-18T06:12:22.563Z,84.05
2023-02-18T06:17:24.266Z,85.35
2023-02-18T06:22:25.912Z,86.34
2023-02-18T06:27:27.553Z,88.11
2023-02-18T06:32:29.250Z,89.72
2023-02-18T06:37:31.007Z,91.20
2023-02-18T06:42:32.650Z,92.01
2023-02-18T06:47:34.733Z,93.52
2023-02-18T06:52:38.080Z,94.76
2023-02-18T06:57:39.760Z,96.02
2023-02-18T07:02:41.361Z,96.99
2023-02-18T07:07:43.028Z,97.50
2023-02-18T07:12:44.696Z,98.33
2023-02-18T07:17:46.271Z,98.65
2023-02-18T07:22:48.250Z,98.55
2023-02-18T07:27:50.293Z,99.06
2023-02-18T07:32:51.992Z,99.54
2023-02-18T07:37:53.656Z,99.46
2023-02-18T07:42:55.336Z,99.69
2023-02-18T07:47:57.421Z,99.75
2023-02-18T07:52:59.204Z,100.00
2023-02-18T07:58:02.359Z,100.00
2023-02-18T08:03:04.556Z,99.89
2023-02-18T08:08:06.213Z,99.36
2023-02-18T08:13:07.842Z,98.88
2023-02-18T08:18:15.579Z,99.08
2023-02-18T08:23:19.237Z,98.86
2023-02-18T08:28:22.713Z,98.89
2023-02-18T08:33:24.812Z,98.79
2023-02-18T08:38:26.683Z,98.82
2023-02-18T08:43:28.361Z,98.71
2023-02-18T08:48:30.179Z,98.38
2023-02-18T08:53:31.801Z,98.50
2023-02-18T08:58:37.141Z,98.15
2023-02-18T09:03:39.255Z,97.76
2023-02-18T09:08:40.861Z,97.95
2023-02-18T09:13:42.657Z,97.90
2023-02-18T09:18:45.621Z,98.17
2023-02-18T09:23:47.618Z,97.61
2023-02-18T09:28:49.913Z,97.95
2023-02-18T09:33:58.315Z,98.10
2023-02-18T09:39:00.694Z,97.71
2023-02-18T09:44:06.213Z,97.39
2023-02-18T09:49:17.163Z,96.74
2023-02-18T09:54:20.290Z,94.96
2023-02-18T09:59:24.049Z,92.50
2023-02-18T10:04:32.398Z,90.35
2023-02-18T10:09:36.653Z,90.41
2023-02-18T10:14:38.406Z,91.62
2023-02-18T10:19:43.350Z,92.23
2023-02-18T10:24:51.804Z,92.01
2023-02-18T10:29:55.633Z,91.66
2023-02-18T10:35:04.946Z,91.99
2023-02-18T10:40:21.575Z,91.09
2023-02-18T10:45:30.213Z,91.92
2023-02-18T10:50:35.938Z,91.08
2023-02-18T10:55:45.641Z,91.21
2023-02-18T11:00:47.311Z,91.12
2023-02-18T11:05:52.499Z,90.48
2023-02-18T11:10:55.274Z,88.72
2023-02-18T11:16:02.170Z,88.57
2023-02-18T11:21:10.222Z,87.42
2023-02-18T11:26:13.454Z,85.23
2023-02-18T11:31:26.870Z,83.79
2023-02-18T11:36:31.059Z,82.56
2023-02-18T11:41:41.728Z,81.40
2023-02-18T11:46:56.480Z,80.79
2023-02-18T11:52:20.890Z,80.75
2023-02-18T11:57:26.408Z,80.91
2023-02-18T12:02:33.850Z,82.02
2023-02-18T12:07:45.596Z,83.37
2023-02-18T12:12:53.191Z,84.52
2023-02-18T12:18:12.380Z,85.41
2023-02-18T12:23:33.098Z,85.77
2023-02-18T12:28:50.591Z,85.98
2023-02-18T12:34:05.931Z,84.73
2023-02-18T12:39:24.416Z,84.14
2023-02-18T12:44:38.446Z,84.97
2023-02-18T12:49:50.640Z,86.36
2023-02-18T12:55:10.876Z,87.83
2023-02-18T13:00:50.177Z,90.47
2023-02-18T13:06:06.662Z,86.71
2023-02-18T13:11:47.016Z,85.75
2023-02-18T13:16:52.306Z,83.90
2023-02-18T13:21:56.973Z,82.25
2023-02-18T13:27:06.984Z,80.15
2023-02-18T13:32:26.775Z,79.36
2023-02-18T13:37:49.918Z,79.31
2023-02-18T13:42:54.831Z,80.74
2023-02-18T13:47:56.729Z,83.62
2023-02-18T13:53:07.136Z,83.24
2023-02-18T13:58:16.673Z,81.79
2023-02-18T14:03:30.406Z,80.05
2023-02-18T14:08:36.285Z,79.73
2023-02-18T14:13:49.809Z,78.78
2023-02-18T14:18:59.486Z,78.20
2023-02-18T14:24:04.632Z,78.98
2023-02-18T14:29:28.861Z,78.70
2023-02-18T14:35:32.366Z,79.66
2023-02-18T14:40:42.893Z,78.22
2023-02-18T14:45:59.216Z,78.69
2023-02-18T14:51:01.230Z,77.54
2023-02-18T14:56:05.258Z,77.94
2023-02-18T15:01:34.609Z,79.01
2023-02-18T15:06:37.842Z,82.15
2023-02-18T15:11:42.441Z,82.87
2023-02-18T15:16:45.008Z,84.66
2023-02-18T15:21:49.251Z,86.24
2023-02-18T15:26:52.076Z,86.33
2023-02-18T15:31:55.728Z,82.54
2023-02-18T15:36:59.116Z,80.45
2023-02-18T15:42:35.190Z,78.94
2023-02-18T15:47:42.682Z,78.94
2023-02-18T15:52:44.379Z,78.27
2023-02-18T15:57:46.060Z,77.11
2023-02-18T16:02:57.138Z,76.67
2023-02-18T16:08:06.919Z,76.83
2023-02-18T16:13:11.239Z,77.00
2023-02-18T16:18:25.858Z,77.39
2023-02-18T16:23:35.216Z,77.38
2023-02-18T16:28:37.058Z,78.06
2023-02-18T16:33:38.684Z,77.97
2023-02-18T16:38:40.332Z,77.54
2023-02-18T16:43:42.197Z,77.57
2023-02-18T16:48:59.642Z,77.57
2023-02-18T16:54:03.808Z,77.65
2023-02-18T16:59:06.424Z,76.99
2023-02-18T17:04:11.384Z,77.20
2023-02-18T17:09:18.250Z,77.08
2023-02-18T17:14:22.244Z,77.80
2023-02-18T17:19:24.196Z,79.00
2023-02-18T17:24:25.933Z,79.65
2023-02-18T17:29:27.611Z,80.90
2023-02-18T17:34:35.892Z,81.67
2023-02-18T17:39:37.580Z,82.83
2023-02-18T17:44:40.442Z,83.75
2023-02-18T17:49:42.073Z,82.63
2023-02-18T17:54:43.702Z,82.22
2023-02-18T17:59:45.422Z,82.09
2023-02-18T18:04:47.056Z,82.86
2023-02-18T18:09:51.520Z,82.22
2023-02-18T18:14:53.126Z,81.27
2023-02-18T18:19:54.803Z,79.74
2023-02-18T18:24:56.474Z,78.92
2023-02-18T18:29:58.153Z,79.34
2023-02-18T18:34:59.903Z,79.26
2023-02-18T18:40:01.597Z,80.89
2023-02-18T18:45:03.619Z,82.71
2023-02-18T18:50:05.516Z,84.98
2023-02-18T18:55:37.036Z,86.02
2023-02-18T19:00:40.326Z,85.42
2023-02-18T19:05:43.552Z,84.04
2023-02-18T19:10:53.260Z,83.06
2023-02-18T19:16:03.515Z,82.56
2023-02-18T19:21:05.478Z,81.62
2023-02-18T19:26:07.526Z,81.43
2023-02-18T19:31:10.613Z,81.23
2023-02-18T19:36:14.739Z,81.35
2023-02-18T19:41:19.542Z,81.56
2023-02-18T19:46:21.285Z,81.83
2023-02-18T19:51:24.791Z,82.73
2023-02-18T19:56:26.818Z,83.06
2023-02-18T20:01:28.703Z,83.10
2023-02-18T20:06:30.373Z,83.74
2023-02-18T20:11:32.137Z,84.69
2023-02-18T20:16:33.817Z,85.03
2023-02-18T20:21:35.638Z,84.97
2023-02-18T20:26:37.252Z,84.90
2023-02-18T20:31:38.988Z,84.32
2023-02-18T20:36:44.004Z,84.45
2023-02-18T20:41:47.198Z,84.19
2023-02-18T20:46:49.414Z,84.37
2023-02-18T20:51:51.171Z,83.56
2023-02-18T20:56:54.467Z,83.46
2023-02-18T21:01:56.941Z,83.67
2023-02-18T21:06:58.684Z,83.71
2023-02-18T21:12:00.314Z,84.07
2023-02-18T21:17:03.705Z,83.80
2023-02-18T21:22:05.421Z,83.22
2023-02-18T21:27:07.213Z,84.09
2023-02-18T21:32:09.283Z,84.61
2023-02-18T21:37:11.120Z,84.77
2023-02-18T21:42:12.756Z,85.52
2023-02-18T21:47:14.401Z,85.96
2023-02-18T21:52:16.069Z,86.72
2023-02-18T21:57:21.379Z,88.63
2023-02-18T22:02:25.798Z,89.81
2023-02-18T22:07:28.450Z,89.59
2023-02-18T22:12:32.020Z,89.57
2023-02-18T22:17:33.696Z,88.83
2023-02-18T22:22:35.315Z,86.83
2023-02-18T22:27:37.019Z,84.82
2023-02-18T22:32:38.674Z,85.14
2023-02-18T22:37:40.411Z,84.38
2023-02-18T22:42:42.039Z,85.27
2023-02-18T22:47:43.651Z,86.91
2023-02-18T22:52:45.315Z,87.60
2023-02-18T22:57:47.166Z,88.42
2023-02-18T23:02:52.623Z,89.24
2023-02-18T23:07:54.301Z,89.02
2023-02-18T23:12:55.964Z,88.98
2023-02-18T23:17:57.623Z,88.17
2023-02-18T23:22:59.301Z,87.41
2023-02-18T23:28:00.909Z,86.56
2023-02-18T23:33:02.612Z,86.11
2023-02-18T23:38:04.279Z,85.39
2023-02-18T23:43:05.989Z,84.80
2023-02-18T23:48:07.603Z,84.79
2023-02-18T23:53:09.278Z,85.41
2023-02-18T23:58:11.287Z,85.00
